Time;durP1;ratioP1;P1;durP2;ratioP2;P2;SDS_P1;SDS_P2;PMS_P1;PMS_P2;Temp;Humidity;BMP_temperature;BMP_pressure;BME280_temperature;BME280_humidity;BME280_pressure;Samples;Min_cycle;Max_cycle;Signal;HPM_P1;HPM_P2
2022/07/08 00:01:58;;;;;;;1.40;1.00;;;11.10;99.90;;;;;;5069130;28;20417;-83
2022/07/08 00:04:26;;;;;;;3.42;1.17;;;11.30;99.90;;;;;;5075323;28;20454;-83
2022/07/08 00:06:53;;;;;;;2.90;1.00;;;11.30;99.90;;;;;;5076926;28;20455;-83
2022/07/08 00:09:20;;;;;;;2.17;1.10;;;11.40;99.90;;;;;;5073879;28;20370;-84
2022/07/08 00:11:48;;;;;;;1.52;1.00;;;11.50;99.90;;;;;;5056136;28;20395;-83
2022/07/08 00:14:15;;;;;;;1.73;1.08;;;11.50;99.10;;;;;;5075212;28;20370;-83
2022/07/08 00:16:43;;;;;;;1.60;0.70;;;11.50;99.90;;;;;;5073341;28;20896;-83
2022/07/08 00:19:13;;;;;;;1.48;0.90;;;11.70;98.50;;;;;;5072912;28;20406;-83
2022/07/08 00:21:43;;;;;;;1.53;0.90;;;11.80;98.00;;;;;;5073138;28;20402;-83
2022/07/08 00:24:11;;;;;;;1.88;0.75;;;12.00;97.20;;;;;;5072879;28;20449;-83
2022/07/08 00:26:39;;;;;;;1.60;0.98;;;12.00;96.80;;;;;;5063345;28;20390;-83
2022/07/08 00:29:07;;;;;;;2.70;0.70;;;12.20;96.10;;;;;;5072774;28;20370;-82
2022/07/08 00:31:35;;;;;;;1.55;0.80;;;12.20;95.40;;;;;;5072946;28;21067;-84
2022/07/08 00:34:02;;;;;;;2.35;0.50;;;12.30;94.90;;;;;;5072851;28;20450;-84
2022/07/08 00:36:29;;;;;;;1.05;0.57;;;12.40;91.80;;;;;;5072847;28;20374;-82
2022/07/08 00:38:56;;;;;;;1.10;0.60;;;12.50;93.70;;;;;;5072459;28;20423;-84
2022/07/08 00:41:23;;;;;;;1.67;0.70;;;12.60;92.70;;;;;;5072305;28;20406;-82
2022/07/08 00:43:51;;;;;;;1.55;0.63;;;12.70;92.80;;;;;;5072421;28;20457;-83
2022/07/08 00:46:18;;;;;;;1.50;0.50;;;12.80;91.40;;;;;;5072475;28;20389;-84
2022/07/08 00:48:45;;;;;;;1.95;0.63;;;13.10;91.40;;;;;;5072359;28;20461;-82
2022/07/08 00:51:17;;;;;;;1.35;0.60;;;13.20;88.00;;;;;;5072090;28;20410;-82
2022/07/08 00:53:51;;;;;;;2.00;0.80;;;13.30;90.00;;;;;;5062933;28;20375;-84
2022/07/08 00:56:21;;;;;;;1.23;0.70;;;13.30;88.50;;;;;;5068075;28;20866;-82
2022/07/08 00:58:50;;;;;;;2.08;0.80;;;13.30;89.80;;;;;;5072092;28;20365;-80
2022/07/08 01:01:17;;;;;;;1.77;0.60;;;13.30;91.00;;;;;;5071684;28;20413;-82
2022/07/08 01:03:45;;;;;;;3.13;0.60;;;13.30;91.70;;;;;;5072090;28;20370;-83
2022/07/08 01:06:13;;;;;;;1.52;0.50;;;13.30;92.70;;;;;;5051776;28;20384;-83
2022/07/08 01:08:42;;;;;;;1.33;0.50;;;13.50;90.40;;;;;;5060133;28;20374;-82
2022/07/08 01:11:11;;;;;;;0.93;0.30;;;13.70;89.20;;;;;;5046382;28;20418;-83
2022/07/08 01:13:40;;;;;;;1.13;0.50;;;13.70;86.80;;;;;;5065629;28;20374;-82
2022/07/08 01:16:07;;;;;;;1.55;0.50;;;13.90;85.80;;;;;;5060091;28;20374;-81
2022/07/08 01:18:35;;;;;;;1.20;0.40;;;14.00;84.70;;;;;;5066886;28;20374;-82
2022/07/08 01:21:02;;;;;;;1.27;0.40;;;13.90;83.50;;;;;;5064897;28;20474;-82
2022/07/08 01:23:30;;;;;;;1.10;0.50;;;13.90;83.70;;;;;;5054842;28;20754;-81
2022/07/08 01:25:58;;;;;;;2.70;0.50;;;14.00;87.30;;;;;;5062330;28;20950;-82
2022/07/08 01:28:25;;;;;;;0.98;0.40;;;14.10;84.50;;;;;;5071643;28;20768;-83
2022/07/08 01:30:52;;;;;;;0.50;0.40;;;14.20;83.60;;;;;;5071268;28;20507;-81
2022/07/08 01:33:20;;;;;;;0.80;0.50;;;14.30;82.40;;;;;;5071007;28;20472;-83
2022/07/08 01:35:47;;;;;;;0.90;0.35;;;14.30;82.50;;;;;;5070011;28;20382;-82
2022/07/08 01:38:14;;;;;;;0.60;0.30;;;14.40;82.10;;;;;;5037636;28;20391;-84
2022/07/08 01:40:41;;;;;;;0.40;0.38;;;14.40;80.20;;;;;;5064251;28;20393;-85
2022/07/08 01:43:08;;;;;;;0.73;0.40;;;14.40;78.50;;;;;;5067973;28;20400;-83
2022/07/08 01:45:38;;;;;;;0.80;0.40;;;14.40;79.80;;;;;;5059189;28;20435;-84
2022/07/08 01:48:06;;;;;;;1.58;0.40;;;14.50;81.70;;;;;;5065490;28;20412;-88
2022/07/08 01:50:33;;;;;;;1.35;0.40;;;16.10;78.30;;;;;;5071146;28;20374;-83
2022/07/08 01:53:00;;;;;;;0.88;0.30;;;14.40;77.50;;;;;;5070912;28;20374;-82
2022/07/08 01:55:28;;;;;;;1.80;0.40;;;14.50;79.00;;;;;;5070992;28;20398;-82
2022/07/08 01:57:55;;;;;;;0.77;0.30;;;14.60;77.00;;;;;;5070962;28;20862;-82
2022/07/08 02:00:22;;;;;;;0.38;0.30;;;14.70;77.00;;;;;;5071152;28;20444;-82
2022/07/08 02:02:49;;;;;;;1.02;0.30;;;14.60;76.60;;;;;;5071632;28;20418;-83
2022/07/08 02:05:17;;;;;;;1.13;0.50;;;14.60;78.60;;;;;;5070744;28;20422;-82
2022/07/08 02:07:44;;;;;;;1.08;0.50;;;14.60;78.50;;;;;;5066804;28;20440;-83
2022/07/08 02:10:11;;;;;;;0.65;0.40;;;14.70;79.30;;;;;;5070780;28;20410;-83
2022/07/08 02:12:38;;;;;;;0.63;0.30;;;14.70;78.70;;;;;;5042929;28;20392;-82
2022/07/08 02:15:08;;;;;;;0.75;0.40;;;14.70;79.70;;;;;;5058234;28;20372;-81
2022/07/08 02:17:41;;;;;;;1.20;0.45;;;14.80;77.60;;;;;;5069342;28;20374;-83
2022/07/08 02:20:11;;;;;;;1.40;0.55;;;14.80;78.50;;;;;;5070657;28;20873;-83
2022/07/08 02:22:38;;;;;;;0.60;0.30;;;15.00;78.50;;;;;;5070425;28;20433;-82
2022/07/08 02:25:06;;;;;;;0.40;0.40;;;15.10;76.80;;;;;;5063638;28;20387;-82
2022/07/08 02:27:33;;;;;;;0.52;0.30;;;14.90;75.60;;;;;;5067509;28;20473;-82
2022/07/08 02:30:00;;;;;;;2.80;0.50;;;15.00;77.10;;;;;;5070478;28;20406;-82
2022/07/08 02:32:27;;;;;;;0.60;0.40;;;14.90;78.50;;;;;;5070095;28;20398;-83
2022/07/08 02:34:55;;;;;;;0.43;0.30;;;14.80;77.70;;;;;;5070416;28;20378;-83
2022/07/08 02:37:22;;;;;;;0.55;0.40;;;14.70;79.20;;;;;;5070427;28;20397;-82
2022/07/08 02:39:49;;;;;;;0.37;0.30;;;14.70;78.20;;;;;;5070262;28;20472;-82
2022/07/08 02:42:16;;;;;;;0.47;0.38;;;14.80;77.90;;;;;;5070597;28;20409;-83
2022/07/08 02:44:43;;;;;;;0.90;0.30;;;14.90;77.30;;;;;;5070305;28;21106;-83
2022/07/08 02:47:10;;;;;;;0.75;0.30;;;14.80;77.50;;;;;;5070508;28;20370;-83
2022/07/08 02:49:37;;;;;;;0.43;0.30;;;14.80;78.50;;;;;;5071439;28;20373;-81
2022/07/08 02:52:05;;;;;;;0.80;0.30;;;14.70;77.60;;;;;;5074605;28;20369;-82
2022/07/08 02:54:32;;;;;;;0.38;0.20;;;14.80;77.90;;;;;;5073994;28;20370;-83
2022/07/08 02:56:59;;;;;;;0.30;0.20;;;14.90;78.20;;;;;;5067262;28;20456;-83
2022/07/08 02:59:27;;;;;;;0.90;0.30;;;14.70;77.70;;;;;;5067754;28;20374;-83
2022/07/08 03:01:54;;;;;;;0.40;0.30;;;14.90;77.00;;;;;;5074138;28;20413;-83
2022/07/08 03:04:21;;;;;;;0.55;0.30;;;14.80;78.60;;;;;;5074415;28;20410;-83
2022/07/08 03:06:48;;;;;;;0.40;0.20;;;14.90;78.80;;;;;;5074302;28;20370;-84
2022/07/08 03:09:15;;;;;;;0.40;0.20;;;14.80;78.20;;;;;;5074437;28;20381;-83
2022/07/08 03:11:42;;;;;;;1.65;0.20;;;14.80;76.50;;;;;;5064531;28;20380;-83
2022/07/08 03:14:09;;;;;;;0.50;0.20;;;14.70;79.10;;;;;;5072538;28;20378;-85
2022/07/08 03:16:36;;;;;;;0.33;0.20;;;14.80;78.60;;;;;;5056992;28;20436;-83
2022/07/08 03:19:04;;;;;;;0.40;0.30;;;14.70;78.20;;;;;;5055366;28;20362;-81
2022/07/08 03:21:31;;;;;;;0.93;0.20;;;14.80;76.20;;;;;;5074574;28;20754;-82
2022/07/08 03:23:58;;;;;;;1.30;0.40;;;14.80;74.90;;;;;;5074189;28;20866;-82
2022/07/08 03:26:25;;;;;;;1.00;0.30;;;14.70;75.50;;;;;;5074042;28;20411;-83
2022/07/08 03:28:52;;;;;;;0.30;0.25;;;14.80;77.40;;;;;;5071017;28;20370;-82
2022/07/08 03:31:19;;;;;;;0.22;0.20;;;14.80;76.00;;;;;;5073778;28;20933;-84
2022/07/08 03:33:46;;;;;;;0.30;0.30;;;14.90;77.60;;;;;;5059425;28;20427;-84
2022/07/08 03:36:14;;;;;;;1.30;0.30;;;15.00;77.30;;;;;;5071649;28;20381;-82
2022/07/08 03:38:41;;;;;;;0.40;0.20;;;15.00;75.10;;;;;;5067618;28;20439;-83
2022/07/08 03:41:20;;;;;;;0.63;0.20;;;15.00;75.50;;;;;;5055809;28;20395;-83
2022/07/08 03:43:50;;;;;;;0.40;0.30;;;14.90;75.20;;;;;;5064245;28;20829;-82
2022/07/08 03:46:17;;;;;;;0.40;0.28;;;14.80;74.50;;;;;;5074459;28;20428;-83
2022/07/08 03:48:45;;;;;;;0.60;0.20;;;14.90;74.30;;;;;;5072529;28;20920;-87
2022/07/08 03:51:13;;;;;;;0.43;0.20;;;15.00;74.40;;;;;;5073411;28;20370;-84
2022/07/08 03:53:42;;;;;;;0.20;0.20;;;14.90;72.90;;;;;;5074155;28;20457;-82
2022/07/08 03:56:13;;;;;;;0.65;0.20;;;14.80;73.50;;;;;;5073321;28;20378;-87
2022/07/08 03:58:40;;;;;;;0.90;0.30;;;14.90;75.30;;;;;;5047675;28;20425;-82
2022/07/08 04:01:07;;;;;;;0.40;0.20;;;15.10;74.40;;;;;;5044531;28;20884;-82
2022/07/08 04:03:35;;;;;;;0.20;0.20;;;15.20;73.40;;;;;;5072009;28;20374;-82
2022/07/08 04:06:02;;;;;;;0.10;0.10;;;15.10;73.10;;;;;;5070339;28;20869;-82
2022/07/08 04:08:29;;;;;;;0.13;0.13;;;15.10;72.80;;;;;;5063015;28;20390;-83
2022/07/08 04:10:56;;;;;;;0.80;0.10;;;15.00;72.70;;;;;;5066896;28;20378;-81
2022/07/08 04:13:27;;;;;;;0.80;0.20;;;15.00;72.70;;;;;;5057399;28;20392;-82
2022/07/08 04:15:55;;;;;;;0.28;0.10;;;14.90;73.40;;;;;;5071524;28;20374;-82
2022/07/08 04:18:24;;;;;;;0.55;0.17;;;14.90;73.60;;;;;;5072944;28;20382;-81
2022/07/08 04:20:51;;;;;;;0.10;0.10;;;14.90;74.70;;;;;;5072068;28;20402;-82
2022/07/08 04:23:19;;;;;;;0.53;0.20;;;14.80;72.10;;;;;;5072957;28;20457;-81
2022/07/08 04:25:46;;;;;;;0.28;0.17;;;14.80;72.40;;;;;;5072799;28;20370;-81
2022/07/08 04:28:13;;;;;;;0.30;0.20;;;14.80;73.00;;;;;;5064789;28;20379;-84
2022/07/08 04:30:40;;;;;;;0.17;0.10;;;14.80;73.60;;;;;;5066901;28;20366;-81
2022/07/08 04:33:08;;;;;;;0.55;0.20;;;14.90;73.30;;;;;;5070671;28;20469;-82
2022/07/08 04:35:36;;;;;;;0.20;0.20;;;14.80;71.50;;;;;;5041855;28;20484;-83
2022/07/08 04:38:04;;;;;;;0.47;0.20;;;14.90;70.00;;;;;;5069760;28;20790;-84
2022/07/08 04:40:31;;;;;;;0.47;0.20;;;14.80;70.00;;;;;;5059855;28;20378;-82
2022/07/08 04:42:59;;;;;;;0.30;0.30;;;15.00;70.90;;;;;;5056531;28;20918;-83
2022/07/08 04:45:26;;;;;;;0.20;0.20;;;15.00;67.70;;;;;;5043426;28;20403;-83
2022/07/08 04:47:53;;;;;;;0.30;0.22;;;15.20;69.60;;;;;;5055807;28;20381;-82
2022/07/08 04:50:21;;;;;;;0.40;0.30;;;15.60;68.10;;;;;;5061167;28;20387;-82
2022/07/08 04:52:48;;;;;;;0.28;0.20;;;16.10;67.50;;;;;;5058776;28;20463;-83
2022/07/08 04:55:29;;;;;;;0.28;0.20;;;16.50;65.70;;;;;;5071913;28;20378;-83
2022/07/08 04:58:04;;;;;;;0.20;0.10;;;16.50;65.50;;;;;;5057606;28;20422;-83
2022/07/08 05:00:33;;;;;;;0.73;0.20;;;16.40;66.10;;;;;;5061643;28;20425;-82
2022/07/08 05:03:01;;;;;;;1.00;0.30;;;16.40;65.70;;;;;;5053448;28;20484;-83
2022/07/08 05:05:30;;;;;;;0.57;0.27;;;16.30;64.70;;;;;;5071925;28;20405;-83
2022/07/08 05:07:58;;;;;;;0.25;0.20;;;16.10;65.10;;;;;;5058923;28;20406;-83
2022/07/08 05:10:25;;;;;;;0.30;0.30;;;15.60;65.60;;;;;;5047152;28;20897;-82
2022/07/08 05:12:52;;;;;;;0.75;0.25;;;15.10;65.90;;;;;;5050510;28;20384;-84
2022/07/08 05:15:20;;;;;;;1.30;0.30;;;14.80;66.80;;;;;;5044772;28;20432;-82
2022/07/08 05:17:47;;;;;;;0.20;0.15;;;14.70;66.10;;;;;;5065407;28;20395;-85
2022/07/08 05:20:15;;;;;;;0.80;0.30;;;14.60;67.30;;;;;;5064217;28;20374;-83
2022/07/08 05:22:42;;;;;;;0.70;0.30;;;14.50;67.00;;;;;;5065109;28;20422;-88
2022/07/08 05:25:10;;;;;;;1.45;0.30;;;14.50;68.50;;;;;;5060537;28;20882;-89
2022/07/08 05:27:37;;;;;;;1.00;0.30;;;14.50;68.70;;;;;;5064828;28;20402;-87
2022/07/08 05:30:10;;;;;;;1.25;0.30;;;14.50;68.60;;;;;;5067927;28;20378;-87
2022/07/08 05:32:38;;;;;;;0.80;0.30;;;14.40;69.10;;;;;;5041791;28;20484;-88
2022/07/08 05:35:07;;;;;;;0.50;0.20;;;13.60;69.20;;;;;;5049396;28;20385;-82
2022/07/08 05:37:38;;;;;;;0.40;0.20;;;14.30;70.10;;;;;;5057235;28;20391;-86
2022/07/08 05:40:09;;;;;;;2.22;2.03;;;14.20;68.90;;;;;;5071229;28;20770;-80
2022/07/08 05:42:37;;;;;;;56.25;41.00;;;14.20;71.30;;;;;;5047876;28;20486;-81
2022/07/08 05:45:06;;;;;;;12.77;8.75;;;14.10;71.70;;;;;;5050294;28;20513;-86
2022/07/08 05:47:33;;;;;;;2.80;1.58;;;14.10;72.80;;;;;;5047601;28;20427;-86
2022/07/08 05:50:00;;;;;;;1.25;0.85;;;14.00;72.10;;;;;;5070269;28;20726;-82
2022/07/08 05:52:27;;;;;;;11.52;8.52;;;14.00;73.80;;;;;;5041513;28;20386;-84
2022/07/08 05:54:55;;;;;;;8.98;6.65;;;14.00;73.50;;;;;;5062268;28;20384;-84
2022/07/08 05:57:22;;;;;;;3.28;1.40;;;13.90;73.40;;;;;;5057579;28;20390;-86
2022/07/08 05:59:52;;;;;;;12.40;9.57;;;13.90;73.30;;;;;;5052762;28;20743;-83
2022/07/08 06:02:20;;;;;;;16.80;12.32;;;13.90;73.70;;;;;;5066400;28;20461;-81
2022/07/08 06:04:47;;;;;;;13.40;9.30;;;13.70;73.40;;;;;;5063375;28;20723;-82
2022/07/08 06:07:14;;;;;;;8.63;6.18;;;13.50;73.60;;;;;;5042551;28;20391;-82
2022/07/08 06:09:41;;;;;;;37.42;28.85;;;13.40;73.20;;;;;;5051115;28;20506;-82
2022/07/08 06:12:09;;;;;;;20.27;16.77;;;13.30;74.90;;;;;;5056180;28;20386;-84
2022/07/08 06:14:36;;;;;;;10.02;8.63;;;13.30;74.40;;;;;;5058693;28;20407;-81
2022/07/08 06:17:03;;;;;;;6.40;5.80;;;13.20;75.40;;;;;;5051217;28;20431;-82
2022/07/08 06:19:30;;;;;;;1.38;1.27;;;13.10;76.30;;;;;;5055600;28;20501;-82
2022/07/08 06:21:57;;;;;;;1.10;1.00;;;13.10;76.90;;;;;;5054709;28;20402;-80
2022/07/08 06:24:24;;;;;;;0.73;0.40;;;13.00;76.20;;;;;;5050042;28;20376;-81
2022/07/08 06:26:52;;;;;;;0.60;0.45;;;13.00;77.50;;;;;;5050488;28;20384;-80
2022/07/08 06:29:19;;;;;;;0.95;0.50;;;12.90;77.60;;;;;;5049421;28;20379;-81
2022/07/08 06:31:48;;;;;;;0.40;0.40;;;12.80;78.10;;;;;;5041446;28;20981;-82
2022/07/08 06:34:15;;;;;;;1.10;0.50;;;12.70;78.10;;;;;;5050068;28;20826;-81
2022/07/08 06:36:42;;;;;;;1.48;0.50;;;12.60;78.00;;;;;;5049953;28;20384;-81
2022/07/08 06:39:09;;;;;;;1.38;0.52;;;12.50;79.20;;;;;;5048669;28;20429;-82
2022/07/08 06:41:37;;;;;;;0.80;0.40;;;12.50;79.80;;;;;;5048118;28;20396;-83
2022/07/08 06:44:05;;;;;;;0.73;0.50;;;12.40;80.70;;;;;;5045616;28;20446;-85
2022/07/08 06:46:32;;;;;;;1.05;0.50;;;12.30;81.40;;;;;;5050703;28;20932;-86
2022/07/08 06:48:59;;;;;;;2.05;0.50;;;12.20;81.70;;;;;;5048394;28;20383;-82
2022/07/08 06:51:27;;;;;;;1.40;0.60;;;12.20;82.60;;;;;;5049813;28;20451;-85
2022/07/08 06:56:40;;;;;;;1.30;0.73;;;12.00;85.30;;;;;;5052067;28;20382;-84
2022/07/08 06:59:07;;;;;;;8.30;4.28;;;11.90;85.40;;;;;;5052186;28;20835;-87
2022/07/08 07:01:35;;;;;;;2.83;1.33;;;11.90;86.00;;;;;;5052820;28;20483;-87
2022/07/08 07:04:02;;;;;;;3.80;1.40;;;11.80;87.10;;;;;;5045251;28;20377;-85
2022/07/08 07:06:29;;;;;;;5.93;5.13;;;11.80;86.40;;;;;;5050744;28;20437;-86
2022/07/08 07:08:56;;;;;;;4.05;3.63;;;11.80;87.00;;;;;;5045665;28;20385;-83
2022/07/08 07:11:24;;;;;;;7.50;5.17;;;11.70;87.60;;;;;;5048595;28;20368;-86
2022/07/08 07:13:51;;;;;;;12.65;9.55;;;11.30;88.20;;;;;;5065780;28;20740;-86
2022/07/08 07:16:18;;;;;;;3.63;2.45;;;11.60;90.00;;;;;;5042061;28;20392;-84
2022/07/08 07:18:45;;;;;;;2.90;2.00;;;11.40;89.60;;;;;;5036574;28;20470;-86
2022/07/08 07:21:12;;;;;;;1.65;1.20;;;11.50;90.10;;;;;;5056155;28;20413;-84
2022/07/08 07:23:39;;;;;;;1.77;1.40;;;11.40;90.00;;;;;;5060391;28;20435;-88
2022/07/08 07:26:07;;;;;;;1.57;1.00;;;11.40;90.60;;;;;;5070003;28;20945;-82
2022/07/08 07:28:35;;;;;;;1.15;0.70;;;11.30;91.00;;;;;;5047776;28;20448;-82
2022/07/08 07:31:03;;;;;;;0.90;0.60;;;11.20;91.10;;;;;;5051670;28;20386;-83
2022/07/08 07:33:31;;;;;;;0.80;0.80;;;11.20;91.60;;;;;;5069946;28;20985;-82
2022/07/08 07:35:58;;;;;;;2.10;0.97;;;11.10;92.10;;;;;;5049093;28;20386;-84
2022/07/08 07:38:25;;;;;;;1.50;0.80;;;11.10;92.50;;;;;;5060557;28;20386;-86
2022/07/08 07:40:52;;;;;;;1.45;1.00;;;11.00;93.20;;;;;;5059186;28;20396;-83
2022/07/08 07:43:20;;;;;;;1.27;1.00;;;11.00;93.10;;;;;;5073139;28;20382;-83
2022/07/08 07:45:47;;;;;;;1.33;1.00;;;10.90;93.70;;;;;;5073407;28;20375;-82
2022/07/08 07:48:15;;;;;;;1.70;1.40;;;10.90;94.70;;;;;;5057456;28;20750;-83
2022/07/08 07:50:42;;;;;;;5.15;3.38;;;10.90;94.00;;;;;;5063509;28;20406;-82
2022/07/08 07:53:09;;;;;;;8.20;6.45;;;10.80;94.30;;;;;;5070036;28;20422;-83
2022/07/08 07:55:37;;;;;;;4.80;2.72;;;10.80;94.80;;;;;;5056704;28;20382;-84
2022/07/08 07:58:05;;;;;;;2.10;1.00;;;10.80;94.90;;;;;;5061901;28;20890;-85
2022/07/08 08:00:32;;;;;;;4.78;4.28;;;10.80;95.20;;;;;;5052280;28;20606;-78
2022/07/08 08:02:59;;;;;;;2.33;1.67;;;10.70;95.70;;;;;;5066571;28;20386;-84
2022/07/08 08:05:26;;;;;;;21.10;18.08;;;10.60;95.80;;;;;;5039792;28;20376;-79
2022/07/08 08:07:54;;;;;;;4.63;3.92;;;10.50;96.90;;;;;;5066082;28;20374;-82
2022/07/08 08:10:21;;;;;;;6.80;4.63;;;10.40;98.10;;;;;;5051172;28;20384;-80
2022/07/08 08:12:48;;;;;;;2.50;1.60;;;10.30;98.50;;;;;;5051114;28;20400;-83
2022/07/08 08:15:15;;;;;;;2.20;1.83;;;10.20;99.90;;;;;;5065855;28;20386;-84
2022/07/08 08:17:43;;;;;;;2.50;1.55;;;10.10;99.90;;;;;;5058560;28;20378;-82
2022/07/08 08:20:12;;;;;;;2.08;1.83;;;10.00;99.90;;;;;;5067563;28;20456;-82
2022/07/08 08:22:39;;;;;;;3.27;1.60;;;9.80;99.90;;;;;;5072663;28;20397;-82
2022/07/08 08:25:07;;;;;;;3.22;2.28;;;9.70;99.90;;;;;;5064857;28;20453;-85
2022/07/08 08:27:38;;;;;;;3.40;2.15;;;9.60;99.90;;;;;;5051781;28;20390;-82
2022/07/08 08:30:06;;;;;;;3.08;2.10;;;9.60;99.90;;;;;;5072809;28;20793;-82
2022/07/08 08:32:33;;;;;;;2.35;1.88;;;9.60;99.90;;;;;;5072314;28;20390;-82
2022/07/08 08:35:00;;;;;;;3.47;2.20;;;9.60;99.90;;;;;;5065969;28;20385;-83
2022/07/08 08:37:28;;;;;;;4.38;2.40;;;9.60;99.90;;;;;;5044256;28;20394;-82
2022/07/08 08:39:55;;;;;;;4.15;2.20;;;9.50;99.90;;;;;;5039743;28;20395;-85
2022/07/08 08:42:23;;;;;;;2.45;1.80;;;9.40;99.90;;;;;;5049004;28;20413;-83
2022/07/08 08:44:51;;;;;;;2.65;2.00;;;9.30;99.90;;;;;;5035577;28;20885;-81
2022/07/08 08:47:20;;;;;;;3.28;2.38;;;9.20;99.90;;;;;;5044916;28;20408;-82
2022/07/08 08:49:49;;;;;;;3.53;2.10;;;9.20;99.90;;;;;;5050694;28;20380;-82
2022/07/08 08:52:17;;;;;;;3.28;1.90;;;9.30;99.90;;;;;;5051819;28;20387;-83
2022/07/08 08:54:46;;;;;;;3.08;2.30;;;9.40;99.90;;;;;;5041872;28;20388;-82
2022/07/08 08:57:13;;;;;;;8.65;7.40;;;9.40;99.90;;;;;;5037765;28;20395;-82
2022/07/08 08:59:41;;;;;;;4.35;3.72;;;9.40;99.90;;;;;;5047202;28;20747;-83
2022/07/08 09:02:10;;;;;;;5.03;4.18;;;9.40;99.90;;;;;;5047278;28;20713;-82
2022/07/08 09:04:38;;;;;;;6.85;5.50;;;9.40;99.90;;;;;;5045417;28;20391;-82
2022/07/08 09:07:06;;;;;;;4.60;3.67;;;9.30;99.90;;;;;;5042885;28;20395;-82
2022/07/08 09:09:33;;;;;;;3.75;3.13;;;9.20;99.90;;;;;;5040908;28;20800;-83
2022/07/08 09:12:18;;;;;;;3.80;3.00;;;9.10;99.90;;;;;;5049363;28;20419;-82
2022/07/08 09:14:50;;;;;;;3.80;2.40;;;9.00;99.90;;;;;;5040798;28;20398;-82
2022/07/08 09:17:18;;;;;;;2.63;2.33;;;8.80;99.90;;;;;;5041690;28;20790;-82
2022/07/08 09:19:49;;;;;;;2.83;2.40;;;8.70;99.90;;;;;;5051738;28;20409;-82
2022/07/08 09:22:17;;;;;;;3.08;2.30;;;8.60;99.90;;;;;;5051993;28;20403;-82
2022/07/08 09:24:44;;;;;;;6.00;2.30;;;8.60;99.90;;;;;;5050209;28;20516;-83
2022/07/08 09:27:13;;;;;;;3.73;2.30;;;8.50;99.90;;;;;;5041896;28;20959;-82
2022/07/08 09:29:59;;;;;;;3.83;2.50;;;8.40;99.90;;;;;;5042136;28;20388;-84
2022/07/08 09:32:27;;;;;;;2.80;1.88;;;8.40;99.90;;;;;;5052255;28;20823;-85
2022/07/08 09:34:54;;;;;;;3.67;2.95;;;8.40;99.90;;;;;;5050188;28;20864;-82
2022/07/08 09:37:22;;;;;;;5.22;3.38;;;8.50;99.90;;;;;;5050605;28;20482;-83
2022/07/08 09:39:49;;;;;;;4.45;3.47;;;8.40;99.90;;;;;;5045160;28;20409;-84
2022/07/08 09:42:17;;;;;;;4.50;2.90;;;8.50;99.90;;;;;;5044742;28;20763;-84
2022/07/08 09:44:52;;;;;;;5.32;3.10;;;8.50;99.90;;;;;;5046667;28;20749;-85
2022/07/08 09:47:19;;;;;;;3.80;3.00;;;8.60;99.90;;;;;;5048412;28;20396;-85
2022/07/08 09:49:47;;;;;;;5.05;3.42;;;8.50;99.90;;;;;;5050717;28;20871;-83
2022/07/08 09:52:23;;;;;;;5.68;3.50;;;8.30;99.90;;;;;;5051214;28;20451;-83
2022/07/08 09:55:01;;;;;;;3.78;3.20;;;8.30;99.90;;;;;;5039385;28;20389;-85
2022/07/08 09:57:29;;;;;;;5.15;3.25;;;8.20;99.90;;;;;;5041184;28;20868;-92
2022/07/08 09:59:57;;;;;;;5.28;2.80;;;8.10;99.90;;;;;;5040412;28;20525;-84
2022/07/08 10:02:25;;;;;;;3.70;3.08;;;7.70;99.90;;;;;;5044456;28;20411;-85
2022/07/08 10:04:53;;;;;;;3.83;2.97;;;7.90;99.90;;;;;;5046979;28;20387;-84
2022/07/08 10:07:20;;;;;;;4.80;2.80;;;7.90;99.90;;;;;;5048347;28;20403;-84
2022/07/08 10:09:47;;;;;;;4.72;2.80;;;7.90;99.90;;;;;;5045699;28;20477;-84
2022/07/08 10:12:15;;;;;;;4.15;3.17;;;7.90;99.90;;;;;;5044237;28;20384;-85
2022/07/08 10:14:46;;;;;;;5.60;3.20;;;7.80;99.90;;;;;;5042197;28;20475;-85
2022/07/08 10:17:18;;;;;;;3.70;3.25;;;7.80;99.90;;;;;;5044831;28;20394;-83
2022/07/08 10:19:47;;;;;;;3.40;2.80;;;7.70;99.90;;;;;;5048776;28;20438;-84
2022/07/08 10:22:17;;;;;;;4.10;3.10;;;7.70;99.90;;;;;;5048492;28;20408;-84
2022/07/08 10:24:47;;;;;;;6.63;4.23;;;7.60;99.90;;;;;;5047225;28;20377;-82
2022/07/08 10:27:14;;;;;;;4.35;2.97;;;7.60;99.90;;;;;;5032877;28;20453;-83
2022/07/08 10:29:41;;;;;;;5.57;3.83;;;7.50;99.90;;;;;;5041234;28;20406;-83
2022/07/08 10:32:27;;;;;;;5.25;4.03;;;7.50;99.90;;;;;;5048584;28;20388;-84
2022/07/08 10:35:23;;;;;;;5.30;3.60;;;7.60;99.90;;;;;;5033472;28;20451;-84
2022/07/08 10:37:59;;;;;;;5.85;4.60;;;7.70;99.90;;;;;;5044116;28;20900;-83
2022/07/08 10:40:50;;;;;;;5.88;4.18;;;7.60;99.90;;;;;;5050345;28;20787;-83
2022/07/08 10:43:21;;;;;;;12.23;8.27;;;7.70;99.90;;;;;;5039189;28;20486;-85
2022/07/08 10:46:16;;;;;;;12.30;9.05;;;7.80;99.90;;;;;;5043106;28;20855;-84
2022/07/08 10:48:50;;;;;;;12.55;9.23;;;7.70;99.90;;;;;;5030637;28;20718;-84
2022/07/08 10:51:21;;;;;;;16.00;10.13;;;7.60;99.90;;;;;;5038293;28;20389;-85
2022/07/08 10:53:55;;;;;;;15.23;10.95;;;7.50;99.90;;;;;;5041774;28;20403;-85
2022/07/08 10:56:53;;;;;;;36.75;31.55;;;7.50;99.90;;;;;;5046804;28;20438;-83
2022/07/08 10:59:28;;;;;;;17.33;12.77;;;7.50;99.90;;;;;;5043063;28;20553;-84
2022/07/08 11:02:07;;;;;;;14.20;11.60;;;7.40;99.90;;;;;;5045149;28;20419;-85
2022/07/08 11:04:35;;;;;;;13.70;10.65;;;7.40;99.90;;;;;;5044587;28;20359;-85
2022/07/08 11:07:29;;;;;;;12.57;9.90;;;7.40;99.90;;;;;;5049443;28;20916;-85
2022/07/08 11:09:57;;;;;;;15.93;11.13;;;7.40;99.90;;;;;;5008173;28;20390;-85
2022/07/08 11:12:29;;;;;;;11.82;9.45;;;7.30;99.90;;;;;;5011832;28;20398;-84
2022/07/08 11:14:58;;;;;;;9.43;7.28;;;7.30;99.90;;;;;;5012377;28;20383;-83
2022/07/08 11:17:34;;;;;;;5.88;4.32;;;7.20;99.90;;;;;;5013035;28;20389;-83
2022/07/08 11:20:05;;;;;;;9.43;6.38;;;7.20;99.90;;;;;;5011851;28;20477;-84
2022/07/08 11:22:40;;;;;;;7.55;5.22;;;7.20;99.90;;;;;;5012696;28;20415;-85
2022/07/08 11:25:09;;;;;;;5.00;4.00;;;7.20;99.90;;;;;;5004440;28;20876;-84
2022/07/08 11:27:37;;;;;;;4.88;3.70;;;7.20;99.90;;;;;;5011803;28;21059;-85
2022/07/08 11:30:17;;;;;;;3.95;3.22;;;7.10;99.90;;;;;;4993731;28;20998;-86
2022/07/08 11:32:48;;;;;;;4.32;3.58;;;7.10;99.90;;;;;;5006625;28;20430;-84
2022/07/08 11:35:23;;;;;;;6.07;4.22;;;7.10;99.90;;;;;;5011946;28;20395;-85
2022/07/08 11:37:50;;;;;;;3.83;3.43;;;7.00;99.90;;;;;;5008123;28;20395;-85
2022/07/08 11:40:18;;;;;;;5.43;4.10;;;7.10;99.90;;;;;;5012824;28;20879;-89
2022/07/08 11:42:45;;;;;;;4.57;4.15;;;7.10;99.90;;;;;;5013776;28;20469;-84
2022/07/08 11:45:13;;;;;;;6.13;4.50;;;7.10;99.90;;;;;;4994588;28;20387;-86
2022/07/08 11:47:41;;;;;;;6.50;4.88;;;7.10;99.90;;;;;;5051874;28;20406;-85
2022/07/08 11:50:12;;;;;;;5.33;3.57;;;7.10;99.90;;;;;;5055390;28;20496;-83
2022/07/08 11:52:40;;;;;;;4.80;3.50;;;7.10;99.90;;;;;;5058782;28;20398;-84
2022/07/08 11:55:09;;;;;;;6.18;3.80;;;7.20;99.90;;;;;;5054546;28;20399;-85
2022/07/08 11:57:43;;;;;;;5.53;4.50;;;7.20;99.90;;;;;;5047910;28;20824;-82
2022/07/08 12:00:10;;;;;;;7.30;4.40;;;7.10;99.90;;;;;;5054117;28;20383;-84
2022/07/08 12:02:38;;;;;;;6.30;4.55;;;7.00;99.90;;;;;;5064626;28;20410;-86
2022/07/08 12:05:09;;;;;;;6.45;4.78;;;7.00;99.90;;;;;;5061432;28;20395;-82
2022/07/08 12:07:38;;;;;;;11.63;9.45;;;7.00;99.90;;;;;;5062627;28;20389;-85
2022/07/08 12:10:06;;;;;;;10.80;8.50;;;6.90;99.90;;;;;;5060110;28;20384;-83
2022/07/08 12:12:35;;;;;;;14.38;10.38;;;7.00;99.90;;;;;;5049901;28;20437;-84
2022/07/08 12:15:14;;;;;;;12.47;7.90;;;7.00;99.90;;;;;;5053831;28;20509;-83
2022/07/08 12:17:41;;;;;;;10.80;9.13;;;6.80;99.90;;;;;;5053768;28;20387;-83
2022/07/08 12:20:09;;;;;;;11.95;10.55;;;6.80;99.90;;;;;;5048430;28;20405;-84
2022/07/08 12:22:47;;;;;;;11.57;8.87;;;6.60;99.90;;;;;;5040639;28;20410;-84
2022/07/08 12:25:17;;;;;;;9.75;7.47;;;6.60;99.90;;;;;;5051920;28;20380;-84
2022/07/08 12:27:54;;;;;;;12.15;8.70;;;6.50;99.90;;;;;;5051891;28;20427;-82
2022/07/08 12:30:27;;;;;;;9.02;6.57;;;6.50;99.90;;;;;;5040437;28;20404;-85
2022/07/08 12:33:02;;;;;;;7.82;6.05;;;6.50;99.90;;;;;;5051271;28;20422;-84
2022/07/08 12:35:33;;;;;;;8.23;5.20;;;6.40;99.90;;;;;;5052543;28;21337;-83
2022/07/08 12:38:05;;;;;;;6.40;4.22;;;6.70;99.90;;;;;;5051999;28;20399;-86
2022/07/08 12:40:39;;;;;;;6.37;4.00;;;6.50;99.90;;;;;;5044791;28;20455;-85
2022/07/08 12:43:08;;;;;;;5.63;4.10;;;6.60;99.90;;;;;;5052788;28;20412;-85
2022/07/08 12:45:36;;;;;;;7.28;3.90;;;6.70;99.90;;;;;;5052233;28;20366;-84
2022/07/08 12:48:03;;;;;;;4.10;3.33;;;6.70;99.90;;;;;;5051607;28;20397;-84
2022/07/08 12:50:31;;;;;;;5.63;3.25;;;6.70;99.90;;;;;;5048599;28;20719;-84
2022/07/08 12:52:59;;;;;;;4.00;2.33;;;6.60;99.90;;;;;;5039278;28;20405;-85
2022/07/08 12:55:26;;;;;;;4.35;2.58;;;6.50;99.90;;;;;;5044466;28;20384;-84
2022/07/08 12:57:54;;;;;;;4.33;3.00;;;6.50;99.90;;;;;;5045125;28;20484;-85
2022/07/08 13:00:21;;;;;;;6.68;4.93;;;6.50;99.90;;;;;;5041646;28;20390;-84